createdAt,value
2022-12-02T00:02:31.545Z,9.13
2022-12-02T00:05:25.801Z,10.35
2022-12-02T00:07:57.520Z,10.20
2022-12-02T00:10:31.095Z,10.75
2022-12-02T00:13:11.948Z,9.07
2022-12-02T00:15:46.495Z,9.15
2022-12-02T00:18:16.062Z,8.25
2022-12-02T00:20:43.982Z,9.48
2022-12-02T00:25:37.674Z,10.65
2022-12-02T00:28:04.686Z,10.50
2022-12-02T00:30:32.383Z,10.98
2022-12-02T00:32:59.015Z,9.82
2022-12-02T00:35:25.766Z,9.05
2022-12-02T00:37:52.674Z,8.27
2022-12-02T00:40:19.639Z,11.73
2022-12-02T00:42:46.617Z,9.82
2022-12-02T00:45:32.687Z,11.50
2022-12-02T00:50:26.741Z,7.75
2022-12-02T00:55:20.355Z,8.20
2022-12-02T00:57:46.985Z,7.45
2022-12-02T01:00:14.294Z,8.23
2022-12-02T01:02:41.016Z,8.38
2022-12-02T01:05:08.471Z,8.38
2022-12-02T01:07:35.110Z,7.13
2022-12-02T01:10:02.021Z,7.50
2022-12-02T01:12:28.733Z,8.32
2022-12-02T01:14:55.331Z,7.80
2022-12-02T01:17:21.928Z,8.85
2022-12-02T01:19:48.511Z,8.50
2022-12-02T01:22:15.141Z,8.32
2022-12-02T01:24:41.799Z,7.43
2022-12-02T01:27:08.459Z,9.23
2022-12-02T01:29:35.054Z,8.05
2022-12-02T01:32:01.783Z,6.53
2022-12-02T01:34:28.452Z,7.70
2022-12-02T01:36:55.137Z,9.23
2022-12-02T01:39:21.828Z,8.57
2022-12-02T01:41:48.590Z,7.28
2022-12-02T01:44:15.380Z,7.78
2022-12-02T01:46:42.212Z,8.02
2022-12-02T01:49:09.208Z,7.57
2022-12-02T01:51:35.997Z,7.20
2022-12-02T01:54:03.165Z,6.53
2022-12-02T01:56:29.766Z,8.55
2022-12-02T01:58:56.797Z,7.95
2022-12-02T02:01:29.150Z,7.40
2022-12-02T02:03:56.237Z,7.35
2022-12-02T02:06:25.674Z,9.98
2022-12-02T02:08:53.126Z,8.88
2022-12-02T02:11:20.418Z,6.63
2022-12-02T02:13:47.247Z,9.10
2022-12-02T02:16:15.027Z,8.82
2022-12-02T02:18:42.109Z,6.80
2022-12-02T02:21:13.747Z,7.88
2022-12-02T02:23:40.463Z,7.55
2022-12-02T02:26:07.130Z,8.80
2022-12-02T02:28:34.482Z,7.28
2022-12-02T02:31:01.315Z,6.97
2022-12-02T02:33:30.174Z,6.80
2022-12-02T02:35:57.056Z,7.07
2022-12-02T02:38:26.112Z,6.65
2022-12-02T02:40:53.889Z,6.22
2022-12-02T02:43:23.414Z,7.95
2022-12-02T02:45:51.189Z,8.05
2022-12-02T02:48:18.983Z,6.63
2022-12-02T02:50:47.118Z,6.68
2022-12-02T02:53:15.761Z,5.35
2022-12-02T02:55:42.844Z,6.47
2022-12-02T02:58:15.454Z,7.00
2022-12-02T03:00:45.730Z,6.53
2022-12-02T03:03:16.166Z,6.90
2022-12-02T03:05:43.005Z,7.18
2022-12-02T03:08:10.591Z,7.20
2022-12-02T03:10:37.913Z,6.30
2022-12-02T03:13:04.689Z,6.80
2022-12-02T03:15:31.435Z,6.90
2022-12-02T03:17:58.314Z,5.68
2022-12-02T03:20:25.495Z,6.45
2022-12-02T03:22:52.216Z,6.70
2022-12-02T03:25:19.604Z,6.18
2022-12-02T03:27:46.642Z,6.32
2022-12-02T03:30:17.975Z,5.88
2022-12-02T03:32:45.510Z,5.78
2022-12-02T03:35:12.416Z,5.82
2022-12-02T03:37:39.183Z,6.88
2022-12-02T03:40:06.589Z,7.43
2022-12-02T03:42:33.299Z,6.57
2022-12-02T03:45:00.225Z,5.30
2022-12-02T03:47:27.065Z,6.57
2022-12-02T03:49:53.944Z,6.32
2022-12-02T03:52:20.670Z,6.63
2022-12-02T03:54:51.981Z,6.07
2022-12-02T03:57:21.522Z,5.18
2022-12-02T03:59:48.137Z,6.47
2022-12-02T04:02:14.787Z,4.95
2022-12-02T04:04:41.513Z,7.25
2022-12-02T04:07:08.240Z,5.30
2022-12-02T04:09:34.830Z,6.07
2022-12-02T04:12:01.452Z,5.22
2022-12-02T04:14:28.152Z,6.82
2022-12-02T04:16:54.773Z,5.88
2022-12-02T04:19:21.755Z,4.97
2022-12-02T04:21:48.538Z,5.15
2022-12-02T04:24:15.136Z,4.85
2022-12-02T04:26:43.875Z,6.00
2022-12-02T04:29:10.892Z,4.85
2022-12-02T04:31:37.565Z,4.95
2022-12-02T04:34:04.223Z,5.40
2022-12-02T04:36:30.817Z,4.95
2022-12-02T04:38:57.519Z,5.82
2022-12-02T04:41:24.351Z,5.97
2022-12-02T04:43:50.976Z,6.32
2022-12-02T04:46:17.843Z,5.40
2022-12-02T04:48:44.608Z,4.72
2022-12-02T04:51:11.255Z,5.43
2022-12-02T04:53:37.946Z,5.82
2022-12-02T04:56:04.795Z,4.90
2022-12-02T04:58:31.420Z,5.40
2022-12-02T05:00:58.035Z,4.90
2022-12-02T05:03:24.714Z,6.50
2022-12-02T05:05:51.453Z,6.20
2022-12-02T05:08:18.087Z,4.82
2022-12-02T05:10:44.690Z,5.32
2022-12-02T05:13:11.350Z,5.47
2022-12-02T05:15:38.060Z,5.10
2022-12-02T05:18:04.674Z,4.47
2022-12-02T05:20:31.430Z,5.50
2022-12-02T05:22:58.080Z,5.25
2022-12-02T05:25:24.823Z,4.65
2022-12-02T05:27:51.494Z,4.63
2022-12-02T05:30:18.165Z,5.47
2022-12-02T05:32:44.837Z,4.68
2022-12-02T05:35:11.459Z,5.47
2022-12-02T05:37:38.087Z,4.65
2022-12-02T05:40:05.398Z,4.82
2022-12-02T05:42:33.760Z,5.15
2022-12-02T05:45:06.379Z,6.50
2022-12-02T05:47:33.034Z,4.35
2022-12-02T05:50:01.169Z,4.80
2022-12-02T05:52:29.366Z,4.45
2022-12-02T05:54:58.815Z,7.65
2022-12-02T05:57:30.795Z,7.43
2022-12-02T06:00:13.194Z,5.38
2022-12-02T06:03:08.342Z,8.20
2022-12-02T06:05:43.087Z,7.63
2022-12-02T06:08:37.848Z,5.70
2022-12-02T06:11:24.085Z,7.47
2022-12-02T06:13:50.799Z,5.95
2022-12-02T06:16:25.565Z,12.50
2022-12-02T06:18:52.289Z,11.88
2022-12-02T06:21:21.376Z,16.48
2022-12-02T06:23:50.870Z,11.20
2022-12-02T06:26:19.629Z,11.63
2022-12-02T06:28:58.573Z,11.45
2022-12-02T06:31:33.959Z,10.13
2022-12-02T06:34:18.897Z,9.77
2022-12-02T06:36:45.669Z,8.15
2022-12-02T06:39:23.493Z,8.13
2022-12-02T06:41:50.725Z,11.18
2022-12-02T06:44:44.552Z,8.10
2022-12-02T06:47:33.169Z,11.10
2022-12-02T06:50:05.964Z,8.57
2022-12-02T06:52:39.977Z,6.93
2022-12-02T06:55:32.110Z,10.45
2022-12-02T06:58:20.453Z,7.15
2022-12-02T07:00:47.203Z,6.47
2022-12-02T07:03:36.190Z,9.35
2022-12-02T07:06:24.907Z,7.00
2022-12-02T07:08:51.592Z,8.38
2022-12-02T07:11:20.846Z,7.35
2022-12-02T07:13:48.505Z,8.10
2022-12-02T07:16:35.204Z,8.07
2022-12-02T07:19:02.085Z,7.60
2022-12-02T07:21:29.177Z,10.77
2022-12-02T07:23:56.633Z,6.38
2022-12-02T07:26:23.855Z,8.30
2022-12-02T07:29:02.570Z,8.48
2022-12-02T07:31:38.798Z,6.75
2022-12-02T07:34:05.403Z,7.50
2022-12-02T07:36:31.990Z,8.32
2022-12-02T07:39:05.950Z,7.05
2022-12-02T07:41:36.892Z,6.63
2022-12-02T07:44:05.383Z,6.38
2022-12-02T07:46:32.119Z,7.57
2022-12-02T07:48:58.900Z,7.72
2022-12-02T07:51:25.791Z,8.98
2022-12-02T07:53:52.442Z,6.88
2022-12-02T07:56:19.061Z,7.10
2022-12-02T07:59:11.235Z,6.28
2022-12-02T08:01:32.441Z,5.88
2022-12-02T08:03:59.354Z,8.02
2022-12-02T08:06:26.267Z,7.10
2022-12-02T08:08:53.004Z,5.75
2022-12-02T08:11:19.627Z,6.07
2022-12-02T08:13:46.210Z,6.50
2022-12-02T08:16:12.815Z,7.07
2022-12-02T08:18:39.474Z,7.72
2022-12-02T08:21:09.000Z,5.90
2022-12-02T08:23:36.583Z,5.97
2022-12-02T08:26:03.751Z,6.00
2022-12-02T08:28:30.662Z,6.75
2022-12-02T08:30:57.436Z,5.60
2022-12-02T08:33:24.184Z,7.95
2022-12-02T08:35:50.894Z,6.60
2022-12-02T08:38:17.650Z,7.75
2022-12-02T08:40:44.485Z,6.53
2022-12-02T08:43:14.025Z,6.13
2022-12-02T08:45:40.710Z,5.38
2022-12-02T08:48:07.385Z,6.55
2022-12-02T08:50:34.107Z,6.18
2022-12-02T08:53:00.878Z,6.10
2022-12-02T08:55:27.957Z,5.28
2022-12-02T08:57:54.632Z,5.65
2022-12-02T09:00:21.478Z,5.75
2022-12-02T09:02:48.387Z,5.72
2022-12-02T09:05:16.246Z,5.88
2022-12-02T09:07:42.884Z,7.05
2022-12-02T09:10:11.060Z,6.07
2022-12-02T09:12:37.776Z,6.50
2022-12-02T09:15:05.378Z,6.07
2022-12-02T09:17:32.057Z,4.93
2022-12-02T09:19:59.237Z,5.28
2022-12-02T09:22:25.947Z,6.15
2022-12-02T09:24:52.802Z,5.30
2022-12-02T09:27:19.701Z,4.70
2022-12-02T09:29:46.373Z,6.90
2022-12-02T09:32:13.000Z,6.72
2022-12-02T09:34:39.755Z,4.60
2022-12-02T09:37:06.480Z,5.05
2022-12-02T09:39:38.429Z,6.10
2022-12-02T09:44:32.873Z,5.57
2022-12-02T09:46:59.705Z,5.15
2022-12-02T09:49:26.601Z,5.30
2022-12-02T09:51:56.862Z,6.15
2022-12-02T09:54:23.540Z,5.20
2022-12-02T09:56:50.195Z,5.05
2022-12-02T09:59:17.666Z,5.65
2022-12-02T10:01:47.054Z,5.05
2022-12-02T10:04:20.851Z,5.00
2022-12-02T10:06:49.142Z,5.28
2022-12-02T10:09:28.778Z,4.88
2022-12-02T10:11:55.867Z,4.88
2022-12-02T10:14:22.785Z,4.68
2022-12-02T10:16:52.009Z,4.90
2022-12-02T10:19:20.205Z,5.68
2022-12-02T10:21:47.155Z,4.57
2022-12-02T10:24:13.910Z,4.47
2022-12-02T10:26:47.017Z,4.93
2022-12-02T10:29:25.500Z,4.20
2022-12-02T10:32:01.428Z,4.80
2022-12-02T10:34:30.221Z,4.90
2022-12-02T10:37:14.370Z,4.78
2022-12-02T10:39:40.983Z,4.93
2022-12-02T10:42:20.035Z,5.43
2022-12-02T10:45:07.194Z,5.03
2022-12-02T10:47:33.925Z,5.72
2022-12-02T10:50:00.655Z,4.35
2022-12-02T10:52:37.975Z,4.20
2022-12-02T10:55:10.053Z,4.95
2022-12-02T10:57:38.320Z,12.05
2022-12-02T11:05:21.604Z,9.82
2022-12-02T11:08:07.303Z,9.27
2022-12-02T11:10:42.686Z,8.27
2022-12-02T11:13:18.321Z,15.68
2022-12-02T11:15:48.281Z,38.50
2022-12-02T11:18:30.420Z,27.25
2022-12-02T11:21:03.148Z,33.67
2022-12-02T11:23:31.015Z,60.75
2022-12-02T11:26:03.280Z,74.28
2022-12-02T11:28:29.884Z,72.68
2022-12-02T11:31:18.678Z,89.88
2022-12-02T11:34:05.666Z,88.32
2022-12-02T11:36:35.520Z,79.70
2022-12-02T11:39:08.199Z,62.53
2022-12-02T11:41:49.811Z,73.75
2022-12-02T11:44:28.336Z,72.65
2022-12-02T11:46:57.105Z,73.60
2022-12-02T11:49:36.249Z,56.83
2022-12-02T11:52:17.799Z,61.50
2022-12-02T11:55:07.830Z,55.08
2022-12-02T11:57:46.197Z,56.45
2022-12-02T12:00:25.939Z,69.00
2022-12-02T12:03:19.295Z,54.63
2022-12-02T12:06:09.024Z,53.03
2022-12-02T12:08:37.717Z,60.08
2022-12-02T12:11:22.472Z,45.45
2022-12-02T12:14:20.299Z,49.45
2022-12-02T12:16:49.387Z,46.97
2022-12-02T12:19:16.196Z,40.88
2022-12-02T12:21:47.940Z,43.28
2022-12-02T12:24:18.250Z,39.95
2022-12-02T12:26:50.491Z,46.47
2022-12-02T12:29:18.656Z,43.60
2022-12-02T12:31:45.700Z,44.70
2022-12-02T12:34:12.459Z,42.63
2022-12-02T12:36:39.324Z,43.75
2022-12-02T12:39:07.163Z,38.78
2022-12-02T12:44:21.293Z,43.60
2022-12-02T12:46:50.127Z,41.28
2022-12-02T12:49:16.805Z,45.30
2022-12-02T12:51:43.486Z,34.45
2022-12-02T12:54:10.102Z,33.33
2022-12-02T12:56:36.711Z,35.40
2022-12-02T12:59:03.496Z,37.28
2022-12-02T13:01:30.229Z,41.10
2022-12-02T13:03:56.884Z,36.70
2022-12-02T13:06:23.510Z,33.38
2022-12-02T13:08:50.110Z,36.20
2022-12-02T13:11:16.690Z,36.13
2022-12-02T13:13:43.395Z,35.50
2022-12-02T13:16:10.006Z,32.00
2022-12-02T13:18:36.672Z,32.45
2022-12-02T13:21:03.654Z,37.05
2022-12-02T13:23:30.356Z,28.98
2022-12-02T13:25:56.980Z,32.42
2022-12-02T13:28:23.751Z,29.60
2022-12-02T13:30:52.042Z,31.77
2022-12-02T13:33:18.960Z,32.40
2022-12-02T13:35:45.656Z,27.70
2022-12-02T13:38:12.301Z,30.88
2022-12-02T13:40:39.040Z,29.33
2022-12-02T13:43:05.681Z,26.80
2022-12-02T13:45:32.399Z,34.20
2022-12-02T13:48:01.657Z,27.88
2022-12-02T13:50:28.474Z,29.13
2022-12-02T13:52:55.094Z,28.42
2022-12-02T13:55:21.738Z,25.38
2022-12-02T13:57:48.358Z,25.10
2022-12-02T14:00:15.610Z,30.98
2022-12-02T14:02:42.388Z,28.65
2022-12-02T14:05:09.411Z,26.05
2022-12-02T14:07:36.463Z,32.47
2022-12-02T14:10:05.308Z,26.25
2022-12-02T14:12:31.939Z,24.42
2022-12-02T14:14:58.555Z,24.77
2022-12-02T14:17:25.237Z,24.45
2022-12-02T14:19:52.129Z,27.00
2022-12-02T14:22:18.867Z,26.02
2022-12-02T14:24:48.810Z,21.70
2022-12-02T14:27:15.900Z,25.10
2022-12-02T14:29:42.592Z,23.13
2022-12-02T14:32:09.944Z,21.55
2022-12-02T14:34:36.604Z,22.50
2022-12-02T14:37:03.489Z,20.80
2022-12-02T14:39:30.150Z,21.88
2022-12-02T14:41:56.757Z,21.95
2022-12-02T14:44:23.591Z,23.35
2022-12-02T14:46:50.281Z,20.90
2022-12-02T14:49:39.113Z,19.17
2022-12-02T14:52:03.768Z,20.00
2022-12-02T14:54:30.415Z,20.83
2022-12-02T14:56:57.076Z,20.27
2022-12-02T14:59:23.782Z,19.33
2022-12-02T15:01:50.463Z,20.05
2022-12-02T15:04:17.233Z,25.45
2022-12-02T15:06:44.908Z,23.67
2022-12-02T15:09:11.710Z,14.13
2022-12-02T15:11:38.505Z,16.95
2022-12-02T15:14:05.299Z,21.27
2022-12-02T15:16:32.091Z,14.93
2022-12-02T15:18:58.774Z,18.67
2022-12-02T15:21:25.452Z,21.15
2022-12-02T15:23:52.199Z,15.75
2022-12-02T15:26:18.924Z,11.57
2022-12-02T15:28:45.538Z,9.60
2022-12-02T15:31:12.382Z,12.45
2022-12-02T15:33:39.140Z,15.35
2022-12-02T15:36:06.037Z,9.73
2022-12-02T15:38:33.372Z,7.97
2022-12-02T15:41:00.705Z,11.82
2022-12-02T15:43:27.331Z,10.82
2022-12-02T15:45:54.006Z,9.10
2022-12-02T15:48:20.782Z,8.75
2022-12-02T15:50:53.254Z,10.20
2022-12-02T15:53:21.956Z,11.00
2022-12-02T15:55:48.585Z,10.32
2022-12-02T15:58:15.228Z,9.43
2022-12-02T16:00:42.054Z,11.13
2022-12-02T16:03:08.744Z,11.10
2022-12-02T16:05:35.543Z,9.18
2022-12-02T16:08:02.290Z,7.35
2022-12-02T16:10:28.979Z,7.45
2022-12-02T16:12:55.622Z,10.00
2022-12-02T16:15:22.269Z,9.63
2022-12-02T16:17:48.878Z,7.60
2022-12-02T16:20:15.624Z,6.95
2022-12-02T16:22:42.289Z,6.35
2022-12-02T16:25:09.159Z,7.28
2022-12-02T16:27:35.838Z,8.52
2022-12-02T16:30:02.510Z,8.30
2022-12-02T16:32:29.164Z,8.32
2022-12-02T16:34:55.937Z,7.60
2022-12-02T16:37:22.962Z,6.82
2022-12-02T16:39:49.979Z,8.55
2022-12-02T16:42:17.037Z,8.80
2022-12-02T16:44:43.912Z,8.80
2022-12-02T16:47:10.526Z,6.88
2022-12-02T16:49:37.261Z,7.35
2022-12-02T16:52:04.035Z,7.68
2022-12-02T16:54:30.650Z,8.23
2022-12-02T16:56:57.380Z,6.50
2022-12-02T16:59:24.440Z,7.20
2022-12-02T17:01:51.220Z,7.78
2022-12-02T17:04:17.998Z,7.88
2022-12-02T17:06:45.531Z,8.90
2022-12-02T17:09:12.466Z,7.13
2022-12-02T17:11:39.218Z,6.75
2022-12-02T17:14:05.992Z,7.68
2022-12-02T17:16:32.711Z,6.72
2022-12-02T17:18:59.443Z,6.28
2022-12-02T17:21:26.040Z,6.18
2022-12-02T17:23:52.643Z,4.97
2022-12-02T17:26:19.307Z,6.53
2022-12-02T17:28:46.102Z,4.65
2022-12-02T17:31:12.807Z,4.68
2022-12-02T17:33:39.550Z,7.03
2022-12-02T17:36:06.720Z,5.30
2022-12-02T17:38:55.673Z,7.72
2022-12-02T17:41:24.499Z,4.43
2022-12-02T17:43:51.252Z,7.40
2022-12-02T17:46:18.099Z,6.63
2022-12-02T17:48:44.992Z,4.82
2022-12-02T17:51:12.880Z,5.60
2022-12-02T17:53:40.059Z,5.45
2022-12-02T17:56:07.683Z,5.00
2022-12-02T17:58:34.545Z,4.82
2022-12-02T18:01:06.099Z,5.78
2022-12-02T18:03:37.838Z,6.55
2022-12-02T18:06:05.911Z,6.35
2022-12-02T18:08:32.602Z,5.03
2022-12-02T18:10:59.231Z,6.10
2022-12-02T18:13:25.890Z,5.50
2022-12-02T18:15:52.597Z,5.43
2022-12-02T18:18:19.426Z,5.55
2022-12-02T18:20:46.095Z,4.80
2022-12-02T18:23:12.762Z,5.15
2022-12-02T18:25:39.451Z,5.00
2022-12-02T18:28:06.055Z,5.57
2022-12-02T18:30:32.781Z,4.93
2022-12-02T18:32:59.482Z,5.75
2022-12-02T18:35:27.955Z,6.18
2022-12-02T18:37:54.702Z,6.93
2022-12-02T18:40:21.452Z,5.95
2022-12-02T18:42:48.223Z,6.13
2022-12-02T18:45:15.275Z,4.97
2022-12-02T18:47:42.343Z,6.10
2022-12-02T18:50:10.348Z,5.07
2022-12-02T18:52:37.386Z,4.43
2022-12-02T18:55:05.150Z,5.55
2022-12-02T18:57:31.889Z,4.72
2022-12-02T18:59:58.687Z,5.20
2022-12-02T19:02:25.360Z,4.60
2022-12-02T19:04:52.532Z,4.38
2022-12-02T19:07:19.897Z,4.57
2022-12-02T19:09:51.522Z,4.78
2022-12-02T19:12:20.421Z,4.07
2022-12-02T19:14:47.197Z,4.20
2022-12-02T19:17:13.813Z,6.20
2022-12-02T19:19:40.506Z,4.85
2022-12-02T19:22:07.311Z,4.93
2022-12-02T19:24:33.984Z,5.72
2022-12-02T19:27:00.847Z,4.45
2022-12-02T19:29:27.805Z,4.78
2022-12-02T19:31:54.620Z,5.40
2022-12-02T19:34:21.356Z,5.13
2022-12-02T19:36:47.959Z,4.32
2022-12-02T19:39:15.617Z,4.18
2022-12-02T19:41:42.794Z,6.45
2022-12-02T19:44:09.746Z,4.25
2022-12-02T19:46:36.553Z,6.97
2022-12-02T19:49:03.780Z,3.75
2022-12-02T19:51:30.684Z,4.88
2022-12-02T19:53:58.484Z,4.88
2022-12-02T19:56:25.593Z,5.28
2022-12-02T19:58:52.389Z,4.20
2022-12-02T20:01:19.427Z,5.32
2022-12-02T20:03:46.126Z,4.35
2022-12-02T20:06:12.766Z,5.60
2022-12-02T20:08:39.346Z,5.50
2022-12-02T20:11:05.970Z,4.10
2022-12-02T20:13:32.690Z,4.03
2022-12-02T20:15:59.434Z,4.00
2022-12-02T20:18:26.503Z,4.05
2022-12-02T20:20:53.164Z,3.75
2022-12-02T20:23:19.836Z,5.03
2022-12-02T20:25:46.507Z,4.72
2022-12-02T20:28:13.097Z,4.25
2022-12-02T20:30:41.001Z,5.35
2022-12-02T20:33:07.759Z,3.67
2022-12-02T20:35:34.454Z,4.63
2022-12-02T20:38:01.618Z,4.65
2022-12-02T20:40:28.464Z,5.25
2022-12-02T20:42:55.136Z,3.67
2022-12-02T20:45:23.012Z,3.17
2022-12-02T20:47:49.815Z,3.97
2022-12-02T20:50:16.532Z,4.95
2022-12-02T20:52:47.008Z,4.63
2022-12-02T20:55:18.212Z,3.97
2022-12-02T20:57:44.804Z,5.30
2022-12-02T21:00:12.085Z,5.60
2022-12-02T21:02:38.859Z,4.57
2022-12-02T21:05:05.996Z,4.07
2022-12-02T21:07:32.717Z,4.10
2022-12-02T21:09:59.402Z,4.70
2022-12-02T21:12:26.089Z,4.78
2022-12-02T21:14:53.387Z,3.20
2022-12-02T21:17:20.215Z,3.58
2022-12-02T21:19:46.852Z,4.05
2022-12-02T21:22:13.485Z,5.55
2022-12-02T21:24:40.194Z,4.38
2022-12-02T21:27:06.809Z,3.25
2022-12-02T21:29:33.398Z,4.28
2022-12-02T21:32:00.114Z,3.92
2022-12-02T21:34:26.801Z,4.78
2022-12-02T21:36:53.463Z,3.28
2022-12-02T21:39:20.938Z,4.03
2022-12-02T21:41:47.613Z,4.20
2022-12-02T21:44:14.299Z,4.05
2022-12-02T21:46:41.006Z,3.53
2022-12-02T21:49:07.694Z,3.40
2022-12-02T21:51:34.336Z,3.92
2022-12-02T21:54:00.953Z,3.05
2022-12-02T21:56:31.964Z,3.75
2022-12-02T21:59:01.571Z,4.70
2022-12-02T22:01:43.694Z,3.88
2022-12-02T22:04:13.332Z,3.95
2022-12-02T22:06:40.032Z,3.45
2022-12-02T22:09:07.864Z,3.03
2022-12-02T22:11:35.202Z,3.85
2022-12-02T22:14:02.402Z,4.55
2022-12-02T22:16:31.484Z,3.33
2022-12-02T22:18:59.257Z,3.38
2022-12-02T22:21:25.935Z,3.55
2022-12-02T22:23:52.533Z,3.70
2022-12-02T22:26:20.021Z,3.55
2022-12-02T22:28:47.102Z,3.50
2022-12-02T22:31:13.901Z,3.17
2022-12-02T22:33:40.674Z,4.20
2022-12-02T22:36:07.607Z,3.05
2022-12-02T22:38:34.226Z,4.15
2022-12-02T22:41:00.850Z,3.63
2022-12-02T22:43:27.501Z,3.75
2022-12-02T22:45:54.205Z,3.03
2022-12-02T22:48:20.916Z,3.33
2022-12-02T22:50:47.519Z,2.97
2022-12-02T22:53:14.129Z,3.30
2022-12-02T22:55:40.725Z,3.20
2022-12-02T22:58:07.342Z,3.10
2022-12-02T23:00:33.962Z,3.65
2022-12-02T23:03:00.648Z,4.22
2022-12-02T23:05:27.388Z,3.15
2022-12-02T23:07:54.050Z,4.47
2022-12-02T23:10:20.731Z,3.50
2022-12-02T23:12:47.399Z,3.10
2022-12-02T23:18:01.197Z,3.33
2022-12-02T23:20:28.062Z,4.35
2022-12-02T23:22:54.784Z,3.17
2022-12-02T23:25:21.490Z,3.63
2022-12-02T23:27:48.175Z,3.97
2022-12-02T23:30:14.907Z,3.88
2022-12-02T23:32:41.539Z,3.10
2022-12-02T23:35:08.911Z,3.50
2022-12-02T23:37:35.567Z,3.85
2022-12-02T23:40:03.028Z,2.47
2022-12-02T23:42:32.814Z,3.20
2022-12-02T23:45:03.890Z,3.28
2022-12-02T23:47:31.820Z,3.45
2022-12-02T23:49:58.426Z,2.97
2022-12-02T23:52:25.354Z,2.47
2022-12-02T23:54:52.867Z,2.92
2022-12-02T23:57:19.687Z,3.03
2022-12-02T23:59:46.272Z,3.05
